sensor_id;sensor_type;location;lat;lon;timestamp;pressure;altitude;pressure_sealevel;temperature;humidity
60820;BME280;46641;48.904;9.126;2022-12-10T00:00:47;97389.44;;;8.34;66.19
60820;BME280;46641;48.904;9.126;2022-12-10T00:05:37;97399.84;;;8.34;66.22
60820;BME280;46641;48.904;9.126;2022-12-10T00:10:28;97392.34;;;8.31;65.97
60820;BME280;46641;48.904;9.126;2022-12-10T00:15:18;97395.47;;;8.35;66.55
60820;BME280;46641;48.904;9.126;2022-12-10T00:20:09;97401.00;;;8.32;66.31
60820;BME280;46641;48.904;9.126;2022-12-10T00:25:00;97403.28;;;8.35;66.13
60820;BME280;46641;48.904;9.126;2022-12-10T00:29:50;97398.25;;;8.33;66.35
60820;BME280;46641;48.904;9.126;2022-12-10T00:34:40;97397.25;;;8.34;65.71
60820;BME280;46641;48.904;9.126;2022-12-10T00:39:30;97398.06;;;8.35;66.17
60820;BME280;46641;48.904;9.126;2022-12-10T00:44:21;97401.66;;;8.34;66.50
60820;BME280;46641;48.904;9.126;2022-12-10T00:49:11;97390.41;;;8.33;65.83
60820;BME280;46641;48.904;9.126;2022-12-10T00:54:02;97391.22;;;8.34;66.06
60820;BME280;46641;48.904;9.126;2022-12-10T00:58:53;97399.22;;;8.32;65.98
60820;BME280;46641;48.904;9.126;2022-12-10T01:03:44;97411.41;;;8.32;66.38
60820;BME280;46641;48.904;9.126;2022-12-10T01:08:35;97423.50;;;8.33;65.77
60820;BME280;46641;48.904;9.126;2022-12-10T01:13:25;97424.44;;;8.32;66.03
60820;BME280;46641;48.904;9.126;2022-12-10T01:18:16;97424.31;;;8.33;66.40
60820;BME280;46641;48.904;9.126;2022-12-10T01:23:06;97432.94;;;8.34;66.21
60820;BME280;46641;48.904;9.126;2022-12-10T01:27:56;97433.75;;;8.34;66.02
60820;BME280;46641;48.904;9.126;2022-12-10T01:32:47;97439.94;;;8.33;66.20
60820;BME280;46641;48.904;9.126;2022-12-10T01:37:37;97437.34;;;8.33;66.56
60820;BME280;46641;48.904;9.126;2022-12-10T01:42:27;97440.25;;;8.30;66.44
60820;BME280;46641;48.904;9.126;2022-12-10T01:47:18;97449.56;;;8.33;65.82
60820;BME280;46641;48.904;9.126;2022-12-10T01:52:10;97448.75;;;8.32;65.79
60820;BME280;46641;48.904;9.126;2022-12-10T02:02:01;97460.81;;;8.33;66.58
60820;BME280;46641;48.904;9.126;2022-12-10T02:12:10;97448.91;;;8.31;66.41
60820;BME280;46641;48.904;9.126;2022-12-10T02:17:07;97447.91;;;8.32;66.53
60820;BME280;46641;48.904;9.126;2022-12-10T02:22:00;97441.06;;;8.31;66.56
60820;BME280;46641;48.904;9.126;2022-12-10T02:26:57;97440.25;;;8.30;66.20
60820;BME280;46641;48.904;9.126;2022-12-10T02:31:53;97441.75;;;8.33;66.44
60820;BME280;46641;48.904;9.126;2022-12-10T02:36:47;97437.66;;;8.30;66.37
60820;BME280;46641;48.904;9.126;2022-12-10T02:41:42;97437.66;;;8.30;66.55
60820;BME280;46641;48.904;9.126;2022-12-10T02:46:36;97433.44;;;8.29;66.82
60820;BME280;46641;48.904;9.126;2022-12-10T02:51:27;97428.22;;;8.29;66.60
60820;BME280;46641;48.904;9.126;2022-12-10T02:56:28;97420.41;;;8.29;66.19
60820;BME280;46641;48.904;9.126;2022-12-10T03:01:46;97414.50;;;8.27;66.41
60820;BME280;46641;48.904;9.126;2022-12-10T03:06:53;97405.72;;;8.28;66.29
60820;BME280;46641;48.904;9.126;2022-12-10T03:11:46;97392.69;;;8.28;66.03
60820;BME280;46641;48.904;9.126;2022-12-10T03:16:42;97391.22;;;8.26;66.50
60820;BME280;46641;48.904;9.126;2022-12-10T03:21:34;97407.69;;;8.26;66.34
60820;BME280;46641;48.904;9.126;2022-12-10T03:26:27;97422.50;;;8.26;66.55
60820;BME280;46641;48.904;9.126;2022-12-10T03:31:18;97423.97;;;8.28;65.90
60820;BME280;46641;48.904;9.126;2022-12-10T03:36:10;97414.50;;;8.27;66.62
60820;BME280;46641;48.904;9.126;2022-12-10T03:41:02;97415.66;;;8.25;66.40
60820;BME280;46641;48.904;9.126;2022-12-10T03:45:53;97392.34;;;8.23;66.40
60820;BME280;46641;48.904;9.126;2022-12-10T03:50:43;97408.00;;;8.23;66.22
60820;BME280;46641;48.904;9.126;2022-12-10T03:55:33;97413.22;;;8.23;66.51
60820;BME280;46641;48.904;9.126;2022-12-10T04:00:23;97432.41;;;8.22;66.40
60820;BME280;46641;48.904;9.126;2022-12-10T04:05:14;97442.84;;;8.22;66.62
60820;BME280;46641;48.904;9.126;2022-12-10T04:10:04;97448.06;;;8.22;66.71
60820;BME280;46641;48.904;9.126;2022-12-10T04:14:55;97451.63;;;8.21;66.52
60820;BME280;46641;48.904;9.126;2022-12-10T04:20:04;97452.63;;;8.20;66.56
60820;BME280;46641;48.904;9.126;2022-12-10T04:24:55;97444.81;;;8.20;66.34
60820;BME280;46641;48.904;9.126;2022-12-10T04:30:07;97446.75;;;8.18;66.56
60820;BME280;46641;48.904;9.126;2022-12-10T04:34:57;97450.16;;;8.18;66.72
60820;BME280;46641;48.904;9.126;2022-12-10T04:39:49;97463.19;;;8.18;66.68
60820;BME280;46641;48.904;9.126;2022-12-10T04:44:40;97464.03;;;8.19;66.54
60820;BME280;46641;48.904;9.126;2022-12-10T04:49:30;97456.22;;;8.19;66.30
60820;BME280;46641;48.904;9.126;2022-12-10T04:54:21;97472.00;;;8.17;67.18
60820;BME280;46641;48.904;9.126;2022-12-10T04:59:11;97473.94;;;8.15;66.59
60820;BME280;46641;48.904;9.126;2022-12-10T05:04:04;97470.50;;;8.15;67.07
60820;BME280;46641;48.904;9.126;2022-12-10T05:08:55;97473.94;;;8.15;66.37
60820;BME280;46641;48.904;9.126;2022-12-10T05:13:46;97466.09;;;8.15;66.21
60820;BME280;46641;48.904;9.126;2022-12-10T05:18:37;97462.69;;;8.15;66.78
60820;BME280;46641;48.904;9.126;2022-12-10T05:23:28;97459.44;;;8.13;66.55
60820;BME280;46641;48.904;9.126;2022-12-10T05:28:22;97459.59;;;8.11;66.17
60820;BME280;46641;48.904;9.126;2022-12-10T05:33:12;97464.16;;;8.09;66.74
60820;BME280;46641;48.904;9.126;2022-12-10T05:38:03;97475.41;;;8.10;66.76
60820;BME280;46641;48.904;9.126;2022-12-10T05:42:53;97464.97;;;8.10;67.05
60820;BME280;46641;48.904;9.126;2022-12-10T05:47:43;97494.44;;;8.10;66.61
60820;BME280;46641;48.904;9.126;2022-12-10T05:52:34;97485.81;;;8.10;66.63
60820;BME280;46641;48.904;9.126;2022-12-10T05:57:24;97482.41;;;8.09;67.22
60820;BME280;46641;48.904;9.126;2022-12-10T06:02:15;97480.59;;;8.10;66.61
60820;BME280;46641;48.904;9.126;2022-12-10T06:07:06;97489.38;;;8.09;67.14
60820;BME280;46641;48.904;9.126;2022-12-10T06:11:56;97487.09;;;8.06;66.11
60820;BME280;46641;48.904;9.126;2022-12-10T06:16:46;97502.72;;;8.06;66.43
60820;BME280;46641;48.904;9.126;2022-12-10T06:21:37;97506.31;;;8.05;66.28
60820;BME280;46641;48.904;9.126;2022-12-10T06:26:27;97506.16;;;8.06;66.30
60820;BME280;46641;48.904;9.126;2022-12-10T06:31:18;97503.69;;;8.05;66.93
60820;BME280;46641;48.904;9.126;2022-12-10T06:36:10;97516.09;;;8.03;66.57
60820;BME280;46641;48.904;9.126;2022-12-10T06:41:07;97519.34;;;8.05;66.62
60820;BME280;46641;48.904;9.126;2022-12-10T06:45:58;97527.31;;;8.03;66.51
60820;BME280;46641;48.904;9.126;2022-12-10T06:50:48;97526.50;;;8.03;66.69
60820;BME280;46641;48.904;9.126;2022-12-10T06:55:38;97523.91;;;8.03;66.70
60820;BME280;46641;48.904;9.126;2022-12-10T07:00:29;97533.47;;;8.02;66.44
60820;BME280;46641;48.904;9.126;2022-12-10T07:05:19;97534.16;;;8.04;67.05
60820;BME280;46641;48.904;9.126;2022-12-10T07:10:09;97536.94;;;8.03;66.57
60820;BME280;46641;48.904;9.126;2022-12-10T07:15:00;97533.19;;;8.05;66.80
60820;BME280;46641;48.904;9.126;2022-12-10T07:19:50;97530.56;;;8.05;66.75
60820;BME280;46641;48.904;9.126;2022-12-10T07:24:40;97539.19;;;8.06;66.71
60820;BME280;46641;48.904;9.126;2022-12-10T07:29:31;97547.84;;;8.06;66.73
60820;BME280;46641;48.904;9.126;2022-12-10T07:34:21;97559.22;;;8.05;67.26
60820;BME280;46641;48.904;9.126;2022-12-10T07:39:13;97569.66;;;8.05;66.92
60820;BME280;46641;48.904;9.126;2022-12-10T07:44:11;97567.84;;;8.06;66.85
60820;BME280;46641;48.904;9.126;2022-12-10T07:49:02;97569.66;;;8.05;67.21
60820;BME280;46641;48.904;9.126;2022-12-10T07:53:53;97575.84;;;8.04;67.36
60820;BME280;46641;48.904;9.126;2022-12-10T07:58:45;97574.06;;;8.05;67.14
60820;BME280;46641;48.904;9.126;2022-12-10T08:03:36;97582.69;;;8.05;66.86
60820;BME280;46641;48.904;9.126;2022-12-10T08:08:26;97582.19;;;8.02;63.24
60820;BME280;46641;48.904;9.126;2022-12-10T08:13:16;97596.38;;;7.81;62.88
60820;BME280;46641;48.904;9.126;2022-12-10T08:18:07;97598.28;;;7.71;62.42
60820;BME280;46641;48.904;9.126;2022-12-10T08:22:57;97602.47;;;7.64;62.02
60820;BME280;46641;48.904;9.126;2022-12-10T08:27:47;97600.47;;;7.58;61.18
60820;BME280;46641;48.904;9.126;2022-12-10T08:32:37;97597.63;;;7.33;60.52
60820;BME280;46641;48.904;9.126;2022-12-10T08:37:28;97598.50;;;6.88;62.10
60820;BME280;46641;48.904;9.126;2022-12-10T08:42:18;97595.56;;;7.19;62.83
60820;BME280;46641;48.904;9.126;2022-12-10T08:47:08;97593.75;;;7.37;61.85
60820;BME280;46641;48.904;9.126;2022-12-10T08:51:59;97594.81;;;7.44;62.20
60820;BME280;46641;48.904;9.126;2022-12-10T08:56:49;97608.06;;;7.51;61.66
60820;BME280;46641;48.904;9.126;2022-12-10T09:01:39;97611.78;;;7.48;62.40
60820;BME280;46641;48.904;9.126;2022-12-10T09:06:29;97623.81;;;7.49;62.94
60820;BME280;46641;48.904;9.126;2022-12-10T09:11:23;97630.34;;;7.54;63.39
60820;BME280;46641;48.904;9.126;2022-12-10T09:16:14;97625.50;;;7.59;63.34
60820;BME280;46641;48.904;9.126;2022-12-10T09:21:10;97627.81;;;7.62;63.70
60820;BME280;46641;48.904;9.126;2022-12-10T09:26:06;97627.53;;;7.65;63.47
60820;BME280;46641;48.904;9.126;2022-12-10T09:30:58;97634.66;;;7.63;63.69
60820;BME280;46641;48.904;9.126;2022-12-10T09:35:49;97645.75;;;7.65;63.74
60820;BME280;46641;48.904;9.126;2022-12-10T09:40:51;97653.41;;;7.66;63.15
60820;BME280;46641;48.904;9.126;2022-12-10T09:45:59;97659.28;;;7.68;64.44
60820;BME280;46641;48.904;9.126;2022-12-10T09:51:08;97648.41;;;7.73;63.74
60820;BME280;46641;48.904;9.126;2022-12-10T09:56:02;97643.88;;;7.75;64.37
60820;BME280;46641;48.904;9.126;2022-12-10T10:01:04;97648.28;;;7.75;64.30
60820;BME280;46641;48.904;9.126;2022-12-10T10:05:55;97647.16;;;7.77;64.31
60820;BME280;46641;48.904;9.126;2022-12-10T10:10:46;97654.66;;;7.80;64.54
60820;BME280;46641;48.904;9.126;2022-12-10T10:15:41;97655.31;;;7.82;64.66
60820;BME280;46641;48.904;9.126;2022-12-10T10:20:31;97649.28;;;7.82;65.35
60820;BME280;46641;48.904;9.126;2022-12-10T10:25:22;97640.38;;;7.84;65.28
60820;BME280;46641;48.904;9.126;2022-12-10T10:30:18;97641.00;;;7.86;64.55
60820;BME280;46641;48.904;9.126;2022-12-10T10:35:20;97641.69;;;7.88;64.35
60820;BME280;46641;48.904;9.126;2022-12-10T10:40:43;97642.38;;;7.90;65.11
60820;BME280;46641;48.904;9.126;2022-12-10T10:45:42;97648.91;;;7.94;64.33
60820;BME280;46641;48.904;9.126;2022-12-10T10:50:44;97643.38;;;7.97;64.65
60820;BME280;46641;48.904;9.126;2022-12-10T10:55:34;97644.06;;;8.00;65.04
60820;BME280;46641;48.904;9.126;2022-12-10T11:00:26;97646.66;;;8.00;65.10
60820;BME280;46641;48.904;9.126;2022-12-10T11:10:20;97653.34;;;8.02;64.94
60820;BME280;46641;48.904;9.126;2022-12-10T11:15:35;97660.22;;;8.03;64.62
60820;BME280;46641;48.904;9.126;2022-12-10T11:20:31;97655.66;;;8.05;65.60
60820;BME280;46641;48.904;9.126;2022-12-10T11:30:26;97667.56;;;8.08;65.37
60820;BME280;46641;48.904;9.126;2022-12-10T11:35:46;97663.84;;;8.10;64.86
60820;BME280;46641;48.904;9.126;2022-12-10T11:40:48;97653.75;;;8.15;64.74
60820;BME280;46641;48.904;9.126;2022-12-10T11:46:01;97662.72;;;8.13;65.36
60820;BME280;46641;48.904;9.126;2022-12-10T11:51:04;97664.03;;;8.17;65.63
60820;BME280;46641;48.904;9.126;2022-12-10T11:56:08;97672.19;;;8.22;65.11
60820;BME280;46641;48.904;9.126;2022-12-10T12:17:00;97668.25;;;8.36;64.62
60820;BME280;46641;48.904;9.126;2022-12-10T12:21:50;97668.25;;;8.36;65.29
60820;BME280;46641;48.904;9.126;2022-12-10T12:27:13;97666.31;;;8.38;64.24
60820;BME280;46641;48.904;9.126;2022-12-10T12:32:09;97673.81;;;8.41;65.05
60820;BME280;46641;48.904;9.126;2022-12-10T12:37:02;97677.78;;;8.45;64.52
60820;BME280;46641;48.904;9.126;2022-12-10T12:42:31;97676.13;;;8.44;64.59
60820;BME280;46641;48.904;9.126;2022-12-10T12:52:56;97689.66;;;8.48;65.29
60820;BME280;46641;48.904;9.126;2022-12-10T12:57:55;97696.38;;;8.50;64.40
60820;BME280;46641;48.904;9.126;2022-12-10T13:03:08;97697.19;;;8.51;65.03
60820;BME280;46641;48.904;9.126;2022-12-10T13:08:28;97705.69;;;8.53;65.15
60820;BME280;46641;48.904;9.126;2022-12-10T13:13:36;97718.41;;;8.56;64.83
60820;BME280;46641;48.904;9.126;2022-12-10T13:18:35;97714.69;;;8.58;64.84
60820;BME280;46641;48.904;9.126;2022-12-10T13:23:32;97715.50;;;8.59;65.77
60820;BME280;46641;48.904;9.126;2022-12-10T13:39:10;97730.53;;;8.65;64.91
60820;BME280;46641;48.904;9.126;2022-12-10T13:44:01;97731.84;;;8.69;65.13
60820;BME280;46641;48.904;9.126;2022-12-10T13:49:19;97739.69;;;8.69;65.40
60820;BME280;46641;48.904;9.126;2022-12-10T13:54:35;97750.09;;;8.69;64.80
60820;BME280;46641;48.904;9.126;2022-12-10T14:09:34;97764.13;;;8.68;65.28
60820;BME280;46641;48.904;9.126;2022-12-10T14:14:41;97776.19;;;8.69;65.06
60820;BME280;46641;48.904;9.126;2022-12-10T14:19:33;97791.97;;;8.68;65.68
60820;BME280;46641;48.904;9.126;2022-12-10T14:24:34;97795.44;;;8.68;65.65
60820;BME280;46641;48.904;9.126;2022-12-10T14:29:25;97806.81;;;8.67;65.88
60820;BME280;46641;48.904;9.126;2022-12-10T14:34:24;97798.19;;;8.66;65.48
60820;BME280;46641;48.904;9.126;2022-12-10T14:39:21;97810.25;;;8.68;65.76
60820;BME280;46641;48.904;9.126;2022-12-10T14:44:14;97815.31;;;8.69;65.70
60820;BME280;46641;48.904;9.126;2022-12-10T14:49:08;97806.81;;;8.67;65.89
60820;BME280;46641;48.904;9.126;2022-12-10T14:54:03;97820.69;;;8.68;65.62
60820;BME280;46641;48.904;9.126;2022-12-10T14:58:59;97829.34;;;8.68;65.46
60820;BME280;46641;48.904;9.126;2022-12-10T15:03:51;97834.56;;;8.68;65.88
60820;BME280;46641;48.904;9.126;2022-12-10T15:08:43;97836.19;;;8.69;65.70
60820;BME280;46641;48.904;9.126;2022-12-10T15:13:41;97841.72;;;8.66;65.77
60820;BME280;46641;48.904;9.126;2022-12-10T15:18:36;97844.03;;;8.69;65.59
60820;BME280;46641;48.904;9.126;2022-12-10T15:28:27;97849.69;;;8.64;65.42
60820;BME280;46641;48.904;9.126;2022-12-10T15:33:31;97853.13;;;8.65;65.34
60820;BME280;46641;48.904;9.126;2022-12-10T15:38:23;97856.03;;;8.62;66.16
60820;BME280;46641;48.904;9.126;2022-12-10T15:48:12;97858.63;;;8.62;66.44
60820;BME280;46641;48.904;9.126;2022-12-10T15:53:03;97864.66;;;8.62;66.51
60820;BME280;46641;48.904;9.126;2022-12-10T15:57:53;97869.22;;;8.60;66.25
60820;BME280;46641;48.904;9.126;2022-12-10T16:02:49;97871.97;;;8.59;66.06
60820;BME280;46641;48.904;9.126;2022-12-10T16:07:42;97872.28;;;8.56;66.37
60820;BME280;46641;48.904;9.126;2022-12-10T16:12:35;97881.91;;;8.55;66.24
60820;BME280;46641;48.904;9.126;2022-12-10T16:17:27;97886.31;;;8.55;66.70
60820;BME280;46641;48.904;9.126;2022-12-10T16:22:17;97886.44;;;8.53;66.63
60820;BME280;46641;48.904;9.126;2022-12-10T16:27:13;97887.41;;;8.52;66.21
60820;BME280;46641;48.904;9.126;2022-12-10T16:32:04;97888.53;;;8.50;66.40
60820;BME280;46641;48.904;9.126;2022-12-10T16:36:54;97892.13;;;8.49;66.80
60820;BME280;46641;48.904;9.126;2022-12-10T16:41:51;97901.56;;;8.50;65.90
60820;BME280;46641;48.904;9.126;2022-12-10T16:46:42;97900.75;;;8.49;66.28
60820;BME280;46641;48.904;9.126;2022-12-10T16:51:33;97908.88;;;8.46;66.72
60820;BME280;46641;48.904;9.126;2022-12-10T16:56:23;97915.88;;;8.46;66.31
60820;BME280;46641;48.904;9.126;2022-12-10T17:01:18;97916.28;;;7.95;62.35
60820;BME280;46641;48.904;9.126;2022-12-10T17:06:10;97916.19;;;8.15;63.13
60820;BME280;46641;48.904;9.126;2022-12-10T17:11:01;97926.03;;;8.21;63.48
60820;BME280;46641;48.904;9.126;2022-12-10T17:16:13;97916.28;;;8.23;63.57
60820;BME280;46641;48.904;9.126;2022-12-10T17:21:05;97923.00;;;8.26;63.63
60820;BME280;46641;48.904;9.126;2022-12-10T17:25:55;97931.63;;;8.26;64.48
60820;BME280;46641;48.904;9.126;2022-12-10T17:30:48;97929.84;;;8.27;64.22
60820;BME280;46641;48.904;9.126;2022-12-10T17:35:41;97924.09;;;8.23;64.36
60820;BME280;46641;48.904;9.126;2022-12-10T17:40:32;97925.72;;;8.24;64.65
60820;BME280;46641;48.904;9.126;2022-12-10T17:45:23;97933.72;;;8.23;64.84
60820;BME280;46641;48.904;9.126;2022-12-10T17:50:27;97939.06;;;8.21;64.52
60820;BME280;46641;48.904;9.126;2022-12-10T17:55:22;97939.06;;;8.21;65.61
60820;BME280;46641;48.904;9.126;2022-12-10T18:00:16;97938.06;;;8.22;64.61
60820;BME280;46641;48.904;9.126;2022-12-10T18:05:07;97949.47;;;8.21;65.61
60820;BME280;46641;48.904;9.126;2022-12-10T18:09:57;97947.97;;;8.18;65.53
60820;BME280;46641;48.904;9.126;2022-12-10T18:14:48;97962.81;;;8.18;65.29
60820;BME280;46641;48.904;9.126;2022-12-10T18:19:38;97962.16;;;8.16;65.71
60820;BME280;46641;48.904;9.126;2022-12-10T18:24:29;97962.16;;;8.16;65.83
60820;BME280;46641;48.904;9.126;2022-12-10T18:29:19;97961.84;;;8.19;66.12
60820;BME280;46641;48.904;9.126;2022-12-10T18:34:11;97961.16;;;8.17;65.57
60820;BME280;46641;48.904;9.126;2022-12-10T18:39:06;97963.09;;;8.15;66.27
60820;BME280;46641;48.904;9.126;2022-12-10T18:43:57;97973.50;;;8.15;66.45
60820;BME280;46641;48.904;9.126;2022-12-10T18:48:47;97978.06;;;8.13;66.55
60820;BME280;46641;48.904;9.126;2022-12-10T18:53:38;97980.53;;;8.14;65.63
60820;BME280;46641;48.904;9.126;2022-12-10T18:58:28;97979.69;;;8.14;66.55
60820;BME280;46641;48.904;9.126;2022-12-10T19:03:18;97976.41;;;8.12;66.23
60820;BME280;46641;48.904;9.126;2022-12-10T19:08:11;97974.63;;;8.12;66.03
60820;BME280;46641;48.904;9.126;2022-12-10T19:13:01;97979.03;;;8.12;66.43
60820;BME280;46641;48.904;9.126;2022-12-10T19:17:52;97985.03;;;8.12;66.69
60820;BME280;46641;48.904;9.126;2022-12-10T19:22:42;97986.03;;;8.11;66.36
60820;BME280;46641;48.904;9.126;2022-12-10T19:27:33;97987.00;;;8.10;66.71
60820;BME280;46641;48.904;9.126;2022-12-10T19:32:23;97994.00;;;8.10;66.25
60820;BME280;46641;48.904;9.126;2022-12-10T19:37:13;97988.91;;;8.08;66.48
60820;BME280;46641;48.904;9.126;2022-12-10T19:42:04;97991.53;;;8.08;66.62
60820;BME280;46641;48.904;9.126;2022-12-10T19:46:54;97998.53;;;8.08;66.04
60820;BME280;46641;48.904;9.126;2022-12-10T19:51:45;97991.69;;;8.07;66.71
60820;BME280;46641;48.904;9.126;2022-12-10T19:56:35;97979.59;;;8.06;66.54
60820;BME280;46641;48.904;9.126;2022-12-10T20:01:27;97993.59;;;8.05;66.17
60820;BME280;46641;48.904;9.126;2022-12-10T20:06:23;97989.50;;;8.02;66.16
60820;BME280;46641;48.904;9.126;2022-12-10T20:11:18;97983.47;;;8.02;66.80
60820;BME280;46641;48.904;9.126;2022-12-10T20:16:37;97988.13;;;7.98;65.80
60820;BME280;46641;48.904;9.126;2022-12-10T20:21:27;97991.72;;;7.97;66.38
60820;BME280;46641;48.904;9.126;2022-12-10T20:26:29;97990.91;;;7.96;65.99
60820;BME280;46641;48.904;9.126;2022-12-10T20:31:21;97991.84;;;7.95;67.05
60820;BME280;46641;48.904;9.126;2022-12-10T20:36:14;97992.13;;;7.92;66.63
60820;BME280;46641;48.904;9.126;2022-12-10T20:41:05;97986.25;;;7.90;66.56
60820;BME280;46641;48.904;9.126;2022-12-10T20:45:55;97993.38;;;7.88;66.47
60820;BME280;46641;48.904;9.126;2022-12-10T20:50:46;98003.13;;;7.86;67.11
60820;BME280;46641;48.904;9.126;2022-12-10T20:55:36;97998.88;;;7.85;66.47
60820;BME280;46641;48.904;9.126;2022-12-10T21:00:26;98003.97;;;7.87;66.46
60820;BME280;46641;48.904;9.126;2022-12-10T21:05:17;98000.84;;;7.83;66.53
60820;BME280;46641;48.904;9.126;2022-12-10T21:10:13;98008.50;;;7.85;66.70
60820;BME280;46641;48.904;9.126;2022-12-10T21:15:24;98014.69;;;7.84;66.99
60820;BME280;46641;48.904;9.126;2022-12-10T21:20:14;98011.09;;;7.85;66.51
60820;BME280;46641;48.904;9.126;2022-12-10T21:25:09;98007.97;;;7.81;66.48
60820;BME280;46641;48.904;9.126;2022-12-10T21:30:00;98006.31;;;7.80;66.35
60820;BME280;46641;48.904;9.126;2022-12-10T21:34:51;98004.66;;;7.79;66.76
60820;BME280;46641;48.904;9.126;2022-12-10T21:39:41;98002.06;;;7.79;66.52
60820;BME280;46641;48.904;9.126;2022-12-10T21:44:31;98002.22;;;7.78;66.22
60820;BME280;46641;48.904;9.126;2022-12-10T21:49:21;98000.56;;;7.77;66.62
60820;BME280;46641;48.904;9.126;2022-12-10T21:54:12;97994.69;;;7.75;66.25
60820;BME280;46641;48.904;9.126;2022-12-10T21:59:02;98000.31;;;7.70;66.83
60820;BME280;46641;48.904;9.126;2022-12-10T22:03:52;98010.44;;;7.73;66.39
60820;BME280;46641;48.904;9.126;2022-12-10T22:08:43;98004.56;;;7.71;66.71
60820;BME280;46641;48.904;9.126;2022-12-10T22:13:33;97999.47;;;7.69;66.83
60820;BME280;46641;48.904;9.126;2022-12-10T22:18:23;98006.34;;;7.70;66.66
60820;BME280;46641;48.904;9.126;2022-12-10T22:23:14;98001.56;;;7.66;66.62
60820;BME280;46641;48.904;9.126;2022-12-10T22:28:05;98002.53;;;7.65;66.93
60820;BME280;46641;48.904;9.126;2022-12-10T22:32:55;97996.63;;;7.63;65.96
60820;BME280;46641;48.904;9.126;2022-12-10T22:37:50;97999.22;;;7.63;66.81
60820;BME280;46641;48.904;9.126;2022-12-10T22:42:40;97994.31;;;7.60;67.11
60820;BME280;46641;48.904;9.126;2022-12-10T22:47:31;97997.59;;;7.62;66.61
60820;BME280;46641;48.904;9.126;2022-12-10T22:52:21;97996.91;;;7.60;67.17
60820;BME280;46641;48.904;9.126;2022-12-10T22:57:11;97984.16;;;7.57;66.49
60820;BME280;46641;48.904;9.126;2022-12-10T23:02:02;97985.13;;;7.56;66.80
60820;BME280;46641;48.904;9.126;2022-12-10T23:06:52;97982.69;;;7.54;67.13
60820;BME280;46641;48.904;9.126;2022-12-10T23:11:43;97976.63;;;7.54;67.17
60820;BME280;46641;48.904;9.126;2022-12-10T23:16:53;97976.78;;;7.52;66.95
60820;BME280;46641;48.904;9.126;2022-12-10T23:21:43;97977.59;;;7.53;66.23
60820;BME280;46641;48.904;9.126;2022-12-10T23:26:33;97985.69;;;7.49;66.67
60820;BME280;46641;48.904;9.126;2022-12-10T23:31:24;97982.28;;;7.49;67.05
60820;BME280;46641;48.904;9.126;2022-12-10T23:36:14;97992.69;;;7.49;67.24
60820;BME280;46641;48.904;9.126;2022-12-10T23:41:06;97989.41;;;7.47;66.97
60820;BME280;46641;48.904;9.126;2022-12-10T23:45:58;97990.38;;;7.46;67.02
60820;BME280;46641;48.904;9.126;2022-12-10T23:50:48;97984.63;;;7.42;66.84
60820;BME280;46641;48.904;9.126;2022-12-10T23:55:42;97988.88;;;7.43;66.63
